Adams City, Colorado
Current Conditions -  °F | °C
As of 8:53 AM on Friday 31 Oct 2014 (Local Time) from KDEN Reporting Station
Broken Clouds Broken Clouds  
Wind Chill: 32°   Ceiling: 22000
Heat Index: 37°   Visibility: 10mi
Dew Point: 28°   Wind: 7mph
Humidity: 70%   Direction: 260°W
Pressure: 30.33"   Gusts: NA
Location:  39.8641°N, 104.821°W
Report Text: KDEN 311453Z 26006KT 10SM FEW140 BKN220 03/M02 A3033 RMK AO2 SLP267 T00281022 53002
Loading
Personal Weather Stations






























Interactive Weather Map
Tropical Storm Tracking
New forecast layout! Learn more

10-Day Weather Forecast

Advertisements
Track Severe Weather on mobile